Time;durP1;ratioP1;P1;durP2;ratioP2;P2;SDS_P1;SDS_P2;PMS_P1;PMS_P2;Temp;Humidity;BMP_temperature;BMP_pressure;BME280_temperature;BME280_humidity;BME280_pressure;Samples;Min_cycle;Max_cycle;Signal;HPM_P1;HPM_P2
2022/01/17 00:00:23;;;;;;;80.13;17.60;;;;;;;;;;5112080;28;20204;-67
2022/01/17 00:02:52;;;;;;;83.35;16.25;;;;;;;;;;5110072;28;20311;-67
2022/01/17 00:05:19;;;;;;;77.68;15.63;;;;;;;;;;5112194;28;20204;-67
2022/01/17 00:07:46;;;;;;;78.70;15.15;;;;;;;;;;5111585;28;20208;-67
2022/01/17 00:10:15;;;;;;;77.38;15.23;;;;;;;;;;5112005;28;20298;-67
2022/01/17 00:12:45;;;;;;;76.88;15.60;;;;;;;;;;5111634;28;20228;-67
2022/01/17 00:15:18;;;;;;;83.10;15.43;;;;;;;;;;5112061;28;20512;-67
2022/01/17 00:17:51;;;;;;;76.47;14.82;;;;;;;;;;5111621;28;20637;-67
2022/01/17 00:20:25;;;;;;;80.78;16.48;;;;;;;;;;5111914;28;20736;-67
2022/01/17 00:22:52;;;;;;;77.85;14.95;;;;;;;;;;5111540;28;20236;-67
2022/01/17 00:25:20;;;;;;;79.57;15.95;;;;;;;;;;5112093;28;20299;-67
2022/01/17 00:27:48;;;;;;;79.32;15.63;;;;;;;;;;5111639;28;20197;-67
2022/01/17 00:30:15;;;;;;;78.30;15.25;;;;;;;;;;5111929;28;20205;-67
2022/01/17 00:32:42;;;;;;;79.22;15.90;;;;;;;;;;5111547;28;20315;-67
2022/01/17 00:35:11;;;;;;;77.10;14.85;;;;;;;;;;5109838;28;20295;-67
2022/01/17 00:37:38;;;;;;;77.53;14.80;;;;;;;;;;5111173;28;20299;-67
2022/01/17 00:40:06;;;;;;;77.85;16.27;;;;;;;;;;5111810;28;20207;-67
2022/01/17 00:42:33;;;;;;;81.55;15.70;;;;;;;;;;5111633;28;20224;-67
2022/01/17 00:45:02;;;;;;;76.95;14.35;;;;;;;;;;5111533;28;20296;-67
2022/01/17 00:47:29;;;;;;;78.40;15.93;;;;;;;;;;5111297;28;20219;-67
2022/01/17 00:49:56;;;;;;;77.05;16.15;;;;;;;;;;5114657;28;20210;-67
2022/01/17 00:52:25;;;;;;;73.03;15.30;;;;;;;;;;5115306;28;20224;-67
2022/01/17 00:54:52;;;;;;;81.85;15.82;;;;;;;;;;5115429;28;20218;-67
2022/01/17 00:57:19;;;;;;;79.68;16.10;;;;;;;;;;5115147;28;20200;-67
2022/01/17 00:59:46;;;;;;;78.40;15.82;;;;;;;;;;5115112;28;20230;-67
2022/01/17 01:02:13;;;;;;;79.18;15.57;;;;;;;;;;5115166;28;20327;-67
2022/01/17 01:04:41;;;;;;;78.25;15.95;;;;;;;;;;5114787;28;20201;-67
2022/01/17 01:07:08;;;;;;;79.50;16.95;;;;;;;;;;5098989;28;20209;-67
2022/01/17 01:09:45;;;;;;;77.43;15.20;;;;;;;;;;5094861;28;20206;-67
2022/01/17 01:12:12;;;;;;;74.32;14.63;;;;;;;;;;5094676;28;20263;-67
2022/01/17 01:14:41;;;;;;;82.40;16.02;;;;;;;;;;5094689;28;20204;-67
2022/01/17 01:17:19;;;;;;;78.88;16.27;;;;;;;;;;5094083;28;20200;-67
2022/01/17 01:19:56;;;;;;;77.70;16.67;;;;;;;;;;5094579;28;20221;-67
2022/01/17 01:27:58;;;;;;;84.15;17.15;;;;;;;;;;5094003;28;20567;-67
2022/01/17 01:30:28;;;;;;;83.05;16.98;;;;;;;;;;5094543;28;20237;-67
2022/01/17 01:32:58;;;;;;;88.03;17.60;;;;;;;;;;5094019;28;20229;-68
2022/01/17 01:35:28;;;;;;;82.68;18.25;;;;;;;;;;5094102;28;20216;-67
2022/01/17 01:37:56;;;;;;;85.88;17.92;;;;;;;;;;5095783;28;20208;-67
2022/01/17 01:40:24;;;;;;;81.88;18.23;;;;;;;;;;5114461;28;20759;-67
2022/01/17 01:42:53;;;;;;;85.90;17.85;;;;;;;;;;5114193;28;20228;-67
2022/01/17 01:45:21;;;;;;;82.82;18.30;;;;;;;;;;5114729;28;20208;-67
2022/01/17 01:47:48;;;;;;;80.57;16.98;;;;;;;;;;5113991;28;20208;-67
2022/01/17 01:50:18;;;;;;;78.63;16.95;;;;;;;;;;5114600;28;20240;-67
2022/01/17 01:52:45;;;;;;;80.43;16.55;;;;;;;;;;5114032;28;20923;-67
2022/01/17 01:55:15;;;;;;;81.28;16.45;;;;;;;;;;5114249;28;20586;-67
2022/01/17 01:57:44;;;;;;;79.30;17.20;;;;;;;;;;5113922;28;20205;-68
2022/01/17 02:00:12;;;;;;;82.60;16.75;;;;;;;;;;5113160;28;20224;-68
2022/01/17 02:02:39;;;;;;;83.47;16.63;;;;;;;;;;5113844;28;20236;-68
2022/01/17 02:05:07;;;;;;;91.60;19.30;;;;;;;;;;5113692;28;20633;-68
2022/01/17 02:07:34;;;;;;;82.75;17.85;;;;;;;;;;5113510;28;20216;-68
2022/01/17 02:10:01;;;;;;;79.38;14.63;;;;;;;;;;5106953;28;20522;-68
2022/01/17 02:12:29;;;;;;;91.20;17.77;;;;;;;;;;5093387;28;20315;-68
2022/01/17 02:14:58;;;;;;;82.85;16.27;;;;;;;;;;5093409;28;20715;-68
2022/01/17 02:17:26;;;;;;;80.93;15.98;;;;;;;;;;5092957;28;20291;-68
2022/01/17 02:20:03;;;;;;;79.60;15.48;;;;;;;;;;5090945;28;20705;-68
2022/01/17 02:22:31;;;;;;;80.88;16.48;;;;;;;;;;5093097;28;20717;-68
2022/01/17 02:24:58;;;;;;;84.80;18.05;;;;;;;;;;5093109;28;20588;-68
2022/01/17 02:27:25;;;;;;;80.00;17.48;;;;;;;;;;5093070;28;20653;-68
2022/01/17 02:29:52;;;;;;;81.60;16.95;;;;;;;;;;5093310;28;20255;-68
2022/01/17 02:32:20;;;;;;;78.95;16.73;;;;;;;;;;5093036;28;20225;-68
2022/01/17 02:34:47;;;;;;;81.38;18.67;;;;;;;;;;5093019;28;20220;-68
2022/01/17 02:37:15;;;;;;;82.15;16.42;;;;;;;;;;5092724;28;20238;-68
2022/01/17 02:39:43;;;;;;;84.10;16.58;;;;;;;;;;5092570;28;20221;-68
2022/01/17 02:42:15;;;;;;;74.78;14.85;;;;;;;;;;5091981;28;20224;-67
2022/01/17 02:44:45;;;;;;;81.80;16.05;;;;;;;;;;5093003;28;20216;-68
2022/01/17 02:47:12;;;;;;;80.15;15.65;;;;;;;;;;5092458;28;20258;-68
2022/01/17 02:49:39;;;;;;;80.57;17.70;;;;;;;;;;5092714;28;20292;-68
2022/01/17 02:52:07;;;;;;;81.63;16.63;;;;;;;;;;5092456;28;20221;-68
2022/01/17 02:54:37;;;;;;;82.75;16.58;;;;;;;;;;5092506;28;20207;-68
2022/01/17 02:57:07;;;;;;;83.15;17.73;;;;;;;;;;5092699;28;20223;-68
2022/01/17 02:59:34;;;;;;;82.22;18.15;;;;;;;;;;5092479;28;20264;-68
2022/01/17 03:02:03;;;;;;;79.68;16.65;;;;;;;;;;5092566;28;20311;-68
2022/01/17 03:04:31;;;;;;;86.65;18.27;;;;;;;;;;5092282;28;20212;-68
2022/01/17 03:06:58;;;;;;;84.97;17.27;;;;;;;;;;5092726;28;20563;-68
2022/01/17 03:09:29;;;;;;;85.90;16.88;;;;;;;;;;5092154;28;20592;-68
2022/01/17 03:11:58;;;;;;;79.95;15.60;;;;;;;;;;5092763;28;20605;-68
2022/01/17 03:14:25;;;;;;;86.50;18.50;;;;;;;;;;5091577;28;20296;-68
2022/01/17 03:16:55;;;;;;;82.13;16.65;;;;;;;;;;5112214;28;20630;-68
2022/01/17 03:19:23;;;;;;;79.95;16.67;;;;;;;;;;5112063;28;20224;-68
2022/01/17 03:21:50;;;;;;;85.50;16.60;;;;;;;;;;5112593;28;20596;-68
2022/01/17 03:24:17;;;;;;;84.68;16.45;;;;;;;;;;5112367;28;20295;-68
2022/01/17 03:26:44;;;;;;;83.72;17.92;;;;;;;;;;5112449;28;20294;-68
2022/01/17 03:29:12;;;;;;;80.75;16.60;;;;;;;;;;5112177;28;20203;-68
2022/01/17 03:31:40;;;;;;;80.53;16.83;;;;;;;;;;5112144;28;20235;-68
2022/01/17 03:34:07;;;;;;;83.45;17.05;;;;;;;;;;5112166;28;20227;-68
2022/01/17 03:36:34;;;;;;;86.28;17.92;;;;;;;;;;5112525;28;20290;-68
2022/01/17 03:39:01;;;;;;;80.43;15.70;;;;;;;;;;5112034;28;20666;-68
2022/01/17 03:41:28;;;;;;;79.75;17.90;;;;;;;;;;5112088;28;20212;-68
2022/01/17 03:43:55;;;;;;;80.30;16.50;;;;;;;;;;5112198;28;20295;-68
2022/01/17 03:46:24;;;;;;;80.45;17.33;;;;;;;;;;5111823;28;20305;-68
2022/01/17 03:48:51;;;;;;;80.20;16.38;;;;;;;;;;5110225;28;20202;-67
2022/01/17 03:51:18;;;;;;;78.85;16.60;;;;;;;;;;5112011;28;20214;-68
2022/01/17 03:53:45;;;;;;;83.35;17.10;;;;;;;;;;5112164;28;20200;-68
2022/01/17 03:56:12;;;;;;;81.80;17.30;;;;;;;;;;5112111;28;20212;-68
2022/01/17 03:58:40;;;;;;;81.95;15.45;;;;;;;;;;5111772;28;20203;-68
2022/01/17 04:01:09;;;;;;;84.07;17.40;;;;;;;;;;5111906;28;20669;-68
2022/01/17 04:03:38;;;;;;;84.75;17.30;;;;;;;;;;5112165;28;20204;-68
2022/01/17 04:06:05;;;;;;;82.60;18.38;;;;;;;;;;5112104;28;20668;-68
2022/01/17 04:08:34;;;;;;;87.70;18.73;;;;;;;;;;5111759;28;20219;-68
2022/01/17 04:11:01;;;;;;;85.18;18.08;;;;;;;;;;5111955;28;20261;-68
2022/01/17 04:13:28;;;;;;;83.82;18.33;;;;;;;;;;5112010;28;20228;-66
2022/01/17 04:15:55;;;;;;;81.80;18.00;;;;;;;;;;5111898;28;20672;-67
2022/01/17 04:18:24;;;;;;;82.10;17.17;;;;;;;;;;5111495;28;20397;-67
2022/01/17 04:20:53;;;;;;;83.10;17.80;;;;;;;;;;5110061;28;20227;-67
2022/01/17 04:23:20;;;;;;;87.20;16.88;;;;;;;;;;5112456;28;20230;-67
2022/01/17 04:25:48;;;;;;;81.03;16.23;;;;;;;;;;5115818;28;20208;-67
2022/01/17 04:28:16;;;;;;;89.47;18.35;;;;;;;;;;5115483;28;20207;-67
2022/01/17 04:30:43;;;;;;;84.20;17.55;;;;;;;;;;5115882;28;20630;-67
2022/01/17 04:33:11;;;;;;;83.93;17.73;;;;;;;;;;5115596;28;20796;-67
2022/01/17 04:35:39;;;;;;;86.07;16.48;;;;;;;;;;5115756;28;20581;-67
2022/01/17 04:38:09;;;;;;;79.70;17.38;;;;;;;;;;5115473;28;20739;-67
2022/01/17 04:40:38;;;;;;;81.57;16.80;;;;;;;;;;5115330;28;20715;-66
2022/01/17 04:43:14;;;;;;;92.35;16.77;;;;;;;;;;5115756;28;20301;-67
2022/01/17 04:45:41;;;;;;;81.68;17.30;;;;;;;;;;5115662;28;20226;-67
2022/01/17 04:48:08;;;;;;;84.95;16.98;;;;;;;;;;5115259;28;20587;-67
2022/01/17 04:50:35;;;;;;;84.38;16.70;;;;;;;;;;5115242;28;20223;-67
2022/01/17 04:53:03;;;;;;;80.07;15.85;;;;;;;;;;5095523;28;20318;-67
2022/01/17 04:55:31;;;;;;;80.82;16.50;;;;;;;;;;5095111;28;20208;-68
2022/01/17 04:57:59;;;;;;;83.75;16.38;;;;;;;;;;5094732;28;20292;-67
2022/01/17 05:00:27;;;;;;;81.25;16.42;;;;;;;;;;5094780;28;20819;-67
2022/01/17 05:02:54;;;;;;;80.50;17.58;;;;;;;;;;5094678;28;20221;-67
2022/01/17 05:05:21;;;;;;;79.35;16.30;;;;;;;;;;5094830;28;20580;-67
2022/01/17 05:07:48;;;;;;;77.68;14.85;;;;;;;;;;5094606;28;20227;-67
2022/01/17 05:10:16;;;;;;;78.93;15.35;;;;;;;;;;5094729;28;20700;-67
2022/01/17 05:12:46;;;;;;;78.97;16.35;;;;;;;;;;5094636;28;20232;-67
2022/01/17 05:15:23;;;;;;;76.88;15.65;;;;;;;;;;5094519;28;20212;-67
2022/01/17 05:18:12;;;;;;;80.93;16.65;;;;;;;;;;5094294;28;20209;-67
2022/01/17 05:20:40;;;;;;;83.18;17.27;;;;;;;;;;5094549;28;20333;-67
2022/01/17 05:23:07;;;;;;;86.68;18.15;;;;;;;;;;5094731;28;20316;-67
2022/01/17 05:25:34;;;;;;;80.50;15.93;;;;;;;;;;5114803;28;20587;-67
2022/01/17 05:28:03;;;;;;;83.60;15.98;;;;;;;;;;5114205;28;20205;-67
2022/01/17 05:30:30;;;;;;;84.05;16.58;;;;;;;;;;5114318;28;20287;-67
2022/01/17 05:32:58;;;;;;;80.45;15.90;;;;;;;;;;5114331;28;20224;-67
2022/01/17 05:35:26;;;;;;;80.63;15.50;;;;;;;;;;5113439;28;20204;-67
2022/01/17 05:37:53;;;;;;;83.57;16.35;;;;;;;;;;5114190;28;20298;-67
2022/01/17 05:40:21;;;;;;;81.38;15.98;;;;;;;;;;5114364;28;20262;-67
2022/01/17 05:42:48;;;;;;;79.85;15.25;;;;;;;;;;5114519;28;20307;-67
2022/01/17 05:45:17;;;;;;;74.80;13.68;;;;;;;;;;5114611;27;20690;-67
2022/01/17 05:47:45;;;;;;;75.85;14.23;;;;;;;;;;5114214;27;20271;-67
2022/01/17 05:50:13;;;;;;;78.60;14.35;;;;;;;;;;5114620;27;20200;-67
2022/01/17 05:52:41;;;;;;;79.32;14.52;;;;;;;;;;5114673;28;20315;-67
2022/01/17 05:55:10;;;;;;;77.43;13.63;;;;;;;;;;5112345;28;20296;-67
2022/01/17 05:57:37;;;;;;;76.15;15.45;;;;;;;;;;5113541;28;20243;-67
2022/01/17 06:00:05;;;;;;;77.18;15.60;;;;;;;;;;5114150;27;20310;-67
2022/01/17 06:02:33;;;;;;;82.35;16.00;;;;;;;;;;5114130;28;20692;-67
2022/01/17 06:05:00;;;;;;;78.18;15.02;;;;;;;;;;5114144;28;20238;-68
2022/01/17 06:07:27;;;;;;;81.80;14.80;;;;;;;;;;5113954;28;20303;-68
2022/01/17 06:09:55;;;;;;;75.72;13.90;;;;;;;;;;5113902;28;20664;-68
2022/01/17 06:12:22;;;;;;;83.28;15.63;;;;;;;;;;5113683;28;20234;-68
2022/01/17 06:14:49;;;;;;;87.63;16.98;;;;;;;;;;5114124;28;20227;-68
2022/01/17 06:17:16;;;;;;;86.20;17.38;;;;;;;;;;5113568;28;20291;-68
2022/01/17 06:19:45;;;;;;;82.63;17.73;;;;;;;;;;5113802;28;20224;-68
2022/01/17 06:22:12;;;;;;;83.75;18.00;;;;;;;;;;5113650;28;20344;-68
2022/01/17 06:24:39;;;;;;;83.88;18.73;;;;;;;;;;5113578;28;20578;-68
2022/01/17 06:27:06;;;;;;;84.38;19.08;;;;;;;;;;5108590;28;20457;-68
2022/01/17 06:29:34;;;;;;;82.78;17.50;;;;;;;;;;5093251;28;20212;-68
2022/01/17 06:32:01;;;;;;;86.47;19.60;;;;;;;;;;5093186;28;20225;-68
2022/01/17 06:34:28;;;;;;;80.60;17.02;;;;;;;;;;5093121;28;20211;-68
2022/01/17 06:36:56;;;;;;;85.72;17.30;;;;;;;;;;5092899;28;20201;-68
2022/01/17 06:39:23;;;;;;;77.75;17.27;;;;;;;;;;5092773;28;20209;-68
2022/01/17 06:41:51;;;;;;;81.80;16.63;;;;;;;;;;5092868;28;20315;-68
2022/01/17 06:44:19;;;;;;;82.13;17.60;;;;;;;;;;5092916;28;20212;-68
2022/01/17 06:46:46;;;;;;;79.57;16.40;;;;;;;;;;5092561;28;20205;-68
2022/01/17 06:49:13;;;;;;;87.75;18.25;;;;;;;;;;5092600;28;20659;-68
2022/01/17 06:51:41;;;;;;;81.13;15.88;;;;;;;;;;5092507;28;20221;-68
2022/01/17 06:54:09;;;;;;;83.93;17.40;;;;;;;;;;5092800;28;20576;-68
2022/01/17 06:56:36;;;;;;;80.35;17.10;;;;;;;;;;5092828;28;20588;-68
2022/01/17 06:59:04;;;;;;;87.05;17.10;;;;;;;;;;5092473;28;20200;-68
2022/01/17 07:01:31;;;;;;;80.78;18.88;;;;;;;;;;5091471;28;20603;-68
2022/01/17 07:03:58;;;;;;;79.60;17.02;;;;;;;;;;5092671;28;20239;-68
2022/01/17 07:06:25;;;;;;;80.15;16.00;;;;;;;;;;5092543;28;20573;-68
2022/01/17 07:08:52;;;;;;;76.63;13.93;;;;;;;;;;5092024;28;20234;-68
2022/01/17 07:11:21;;;;;;;76.88;15.75;;;;;;;;;;5092527;28;20197;-68
2022/01/17 07:13:48;;;;;;;83.03;14.35;;;;;;;;;;5092571;28;20247;-68
2022/01/17 07:16:16;;;;;;;87.72;18.30;;;;;;;;;;5092303;28;20207;-68
2022/01/17 07:18:43;;;;;;;82.30;17.50;;;;;;;;;;5091998;28;20209;-68
2022/01/17 07:21:10;;;;;;;80.45;15.77;;;;;;;;;;5091959;28;20319;-68
2022/01/17 07:23:37;;;;;;;85.57;17.33;;;;;;;;;;5092369;28;20300;-68
2022/01/17 07:26:04;;;;;;;81.88;16.02;;;;;;;;;;5092382;28;20205;-68
2022/01/17 07:28:33;;;;;;;84.10;16.50;;;;;;;;;;5091797;28;20295;-68
2022/01/17 07:31:00;;;;;;;72.65;13.70;;;;;;;;;;5091846;28;20231;-68
2022/01/17 07:33:28;;;;;;;70.30;11.68;;;;;;;;;;5109097;28;20315;-68
2022/01/17 07:35:55;;;;;;;71.05;11.13;;;;;;;;;;5112622;28;20246;-68
2022/01/17 07:38:22;;;;;;;69.15;10.45;;;;;;;;;;5112213;28;20204;-68
2022/01/17 07:40:50;;;;;;;71.10;11.80;;;;;;;;;;5112360;28;20224;-67
2022/01/17 07:43:17;;;;;;;75.00;13.20;;;;;;;;;;5112129;28;20311;-67
2022/01/17 07:46:02;;;;;;;73.95;13.88;;;;;;;;;;5112314;28;20303;-67
2022/01/17 07:51:14;;;;;;;75.53;13.27;;;;;;;;;;5112468;28;20276;-68
2022/01/17 07:53:41;;;;;;;77.88;14.35;;;;;;;;;;5112091;28;20247;-68
2022/01/17 07:56:08;;;;;;;79.03;12.52;;;;;;;;;;5112105;28;20226;-67
2022/01/17 07:58:35;;;;;;;72.53;11.82;;;;;;;;;;5112857;28;20208;-68
2022/01/17 08:01:04;;;;;;;70.95;11.45;;;;;;;;;;5116615;28;20315;-68
2022/01/17 08:03:31;;;;;;;71.78;11.75;;;;;;;;;;5107120;28;20310;-68
2022/01/17 08:05:58;;;;;;;71.05;11.77;;;;;;;;;;5096209;28;20587;-68
2022/01/17 08:08:25;;;;;;;69.90;10.93;;;;;;;;;;5095519;28;20311;-68
2022/01/17 08:10:52;;;;;;;71.75;9.98;;;;;;;;;;5095789;28;20200;-69
2022/01/17 08:13:20;;;;;;;71.00;10.50;;;;;;;;;;5095919;28;20311;-68
2022/01/17 08:15:47;;;;;;;69.55;10.10;;;;;;;;;;5095994;28;20201;-68
2022/01/17 08:18:16;;;;;;;75.03;11.40;;;;;;;;;;5095673;28;20295;-68
2022/01/17 08:20:44;;;;;;;69.53;10.88;;;;;;;;;;5095663;28;20270;-67
2022/01/17 08:23:11;;;;;;;70.15;10.20;;;;;;;;;;5095841;28;20221;-67
2022/01/17 08:25:39;;;;;;;65.90;9.52;;;;;;;;;;5095466;28;20296;-67
2022/01/17 08:28:06;;;;;;;67.22;8.95;;;;;;;;;;5095763;28;20588;-67
2022/01/17 08:30:33;;;;;;;67.72;9.52;;;;;;;;;;5095654;28;20201;-68
2022/01/17 08:33:01;;;;;;;70.93;10.35;;;;;;;;;;5095275;28;20225;-67
2022/01/17 08:35:29;;;;;;;75.32;10.60;;;;;;;;;;5108213;28;20215;-68
2022/01/17 08:37:57;;;;;;;70.55;10.05;;;;;;;;;;5115506;28;20684;-67
2022/01/17 08:40:24;;;;;;;70.68;10.18;;;;;;;;;;5115961;28;20227;-67
2022/01/17 08:42:51;;;;;;;67.07;9.10;;;;;;;;;;5115689;28;20325;-68
2022/01/17 08:45:21;;;;;;;67.40;9.30;;;;;;;;;;5115926;27;20204;-67
2022/01/17 08:47:49;;;;;;;67.35;8.65;;;;;;;;;;5115310;28;20204;-68
2022/01/17 08:50:17;;;;;;;68.15;9.68;;;;;;;;;;5115663;28;20262;-68
2022/01/17 08:52:46;;;;;;;67.88;9.52;;;;;;;;;;5115276;28;20224;-67
2022/01/17 08:55:14;;;;;;;74.03;10.75;;;;;;;;;;5116035;28;20231;-68
2022/01/17 08:57:41;;;;;;;72.72;10.25;;;;;;;;;;5115834;28;20680;-68
2022/01/17 09:00:10;;;;;;;68.70;9.82;;;;;;;;;;5115736;27;20208;-68
2022/01/17 09:02:37;;;;;;;68.35;9.73;;;;;;;;;;5115675;28;20229;-68
2022/01/17 09:05:04;;;;;;;69.18;10.50;;;;;;;;;;5114260;27;20231;-67
2022/01/17 09:07:32;;;;;;;67.80;9.75;;;;;;;;;;5115194;28;20239;-68
2022/01/17 09:10:00;;;;;;;66.30;8.90;;;;;;;;;;5115341;28;20295;-67
2022/01/17 09:12:27;;;;;;;63.65;7.45;;;;;;;;;;5116085;28;20223;-68
2022/01/17 09:14:54;;;;;;;67.15;8.25;;;;;;;;;;5130281;28;20295;-68
2022/01/17 09:17:22;;;;;;;66.72;7.90;;;;;;;;;;5132978;28;20215;-68
2022/01/17 09:19:50;;;;;;;66.60;8.77;;;;;;;;;;5131903;28;20220;-68
2022/01/17 09:22:17;;;;;;;63.72;7.35;;;;;;;;;;5132477;28;20543;-67
2022/01/17 09:24:45;;;;;;;66.43;9.13;;;;;;;;;;5132934;28;20205;-68
2022/01/17 09:27:15;;;;;;;67.50;8.25;;;;;;;;;;5132473;28;20243;-67
2022/01/17 09:29:42;;;;;;;65.85;8.50;;;;;;;;;;5135953;28;20204;-67
2022/01/17 09:32:09;;;;;;;66.30;7.75;;;;;;;;;;5125652;27;20231;-68
2022/01/17 09:34:37;;;;;;;67.43;8.95;;;;;;;;;;5114784;28;20208;-68
2022/01/17 09:37:04;;;;;;;66.47;9.05;;;;;;;;;;5112751;28;20295;-68
2022/01/17 09:39:32;;;;;;;65.47;8.40;;;;;;;;;;5114481;28;20250;-68
2022/01/17 09:41:59;;;;;;;65.00;8.25;;;;;;;;;;5114393;28;20667;-69
2022/01/17 09:44:28;;;;;;;64.05;6.80;;;;;;;;;;5114451;28;20307;-68
2022/01/17 09:46:56;;;;;;;65.05;8.52;;;;;;;;;;5114156;28;20213;-68
2022/01/17 09:49:30;;;;;;;65.20;7.55;;;;;;;;;;5114396;28;20265;-68
2022/01/17 09:54:49;;;;;;;63.10;7.50;;;;;;;;;;5098096;28;20200;-68
2022/01/17 09:57:16;;;;;;;63.75;7.55;;;;;;;;;;5113844;28;20454;-67
2022/01/17 09:59:45;;;;;;;66.23;7.40;;;;;;;;;;5114295;28;20205;-68
2022/01/17 10:02:13;;;;;;;63.67;7.17;;;;;;;;;;5114331;28;20568;-69
2022/01/17 10:04:40;;;;;;;66.72;8.18;;;;;;;;;;5114200;28;20877;-69
2022/01/17 10:07:08;;;;;;;64.30;6.90;;;;;;;;;;5113899;27;20212;-69
2022/01/17 10:09:36;;;;;;;66.85;7.63;;;;;;;;;;5112411;28;20200;-69
2022/01/17 10:12:08;;;;;;;65.20;7.50;;;;;;;;;;5113975;28;20576;-67
2022/01/17 10:14:36;;;;;;;65.53;8.10;;;;;;;;;;5114078;28;20287;-67
2022/01/17 10:17:09;;;;;;;64.82;7.97;;;;;;;;;;5113586;28;20450;-69
2022/01/17 10:19:36;;;;;;;67.78;7.45;;;;;;;;;;5112419;28;20208;-69
2022/01/17 10:22:10;;;;;;;68.70;8.25;;;;;;;;;;5112923;28;20273;-69
2022/01/17 10:24:45;;;;;;;64.70;7.70;;;;;;;;;;5113634;28;20204;-68
2022/01/17 10:27:31;;;;;;;67.50;8.75;;;;;;;;;;5113476;28;20214;-68
2022/01/17 10:35:33;;;;;;;67.03;8.40;;;;;;;;;;5113544;28;20899;-69
2022/01/17 10:38:02;;;;;;;67.03;7.75;;;;;;;;;;5113200;28;20210;-69
2022/01/17 10:40:30;;;;;;;65.10;8.07;;;;;;;;;;5113320;28;20207;-69
2022/01/17 10:42:59;;;;;;;63.55;6.95;;;;;;;;;;5113004;28;20234;-68
2022/01/17 10:45:29;;;;;;;64.27;7.10;;;;;;;;;;5113175;28;20215;-69
2022/01/17 10:47:59;;;;;;;67.32;7.38;;;;;;;;;;5112926;28;20442;-69
2022/01/17 10:50:27;;;;;;;62.63;6.65;;;;;;;;;;5113251;28;20311;-67
2022/01/17 10:52:55;;;;;;;64.55;7.70;;;;;;;;;;5112946;28;20726;-68
2022/01/17 10:55:24;;;;;;;64.18;7.30;;;;;;;;;;5112971;28;20291;-68
2022/01/17 10:57:54;;;;;;;63.95;7.32;;;;;;;;;;5112736;28;20264;-68
2022/01/17 11:00:22;;;;;;;64.55;7.00;;;;;;;;;;5113276;28;20215;-68
2022/01/17 11:02:51;;;;;;;65.50;7.95;;;;;;;;;;5111197;28;20238;-68
2022/01/17 11:05:22;;;;;;;65.25;7.63;;;;;;;;;;5113057;28;20299;-68
2022/01/17 11:07:50;;;;;;;67.20;9.00;;;;;;;;;;5112832;28;20219;-69
2022/01/17 11:10:18;;;;;;;65.10;7.55;;;;;;;;;;5112747;28;20204;-66
2022/01/17 11:12:45;;;;;;;64.05;6.18;;;;;;;;;;5112812;28;20220;-66
2022/01/17 11:15:13;;;;;;;63.45;7.13;;;;;;;;;;5112683;28;20211;-66
2022/01/17 11:17:47;;;;;;;65.00;7.38;;;;;;;;;;5112360;28;20206;-67
2022/01/17 11:20:14;;;;;;;64.60;7.13;;;;;;;;;;5112725;28;20249;-66
2022/01/17 11:22:44;;;;;;;63.40;7.05;;;;;;;;;;5112107;28;20242;-68
2022/01/17 11:25:12;;;;;;;63.92;7.10;;;;;;;;;;5112507;28;20693;-68
2022/01/17 11:27:40;;;;;;;63.42;6.45;;;;;;;;;;5112266;27;20200;-66
2022/01/17 11:30:08;;;;;;;67.32;7.72;;;;;;;;;;5112536;28;20742;-67
2022/01/17 11:32:35;;;;;;;63.17;7.30;;;;;;;;;;5112506;28;20308;-66
2022/01/17 11:35:03;;;;;;;64.07;6.95;;;;;;;;;;5110926;28;20300;-66
2022/01/17 11:37:33;;;;;;;64.78;7.22;;;;;;;;;;5112312;28;20204;-67
2022/01/17 11:40:03;;;;;;;69.60;8.85;;;;;;;;;;5112487;28;20210;-67
2022/01/17 11:42:31;;;;;;;64.28;7.30;;;;;;;;;;5112107;28;20228;-67
2022/01/17 11:44:58;;;;;;;64.57;8.32;;;;;;;;;;5112321;28;20592;-67
2022/01/17 11:47:43;;;;;;;64.30;7.57;;;;;;;;;;5111919;28;20296;-67
2022/01/17 11:50:33;;;;;;;64.50;8.48;;;;;;;;;;5112304;28;20210;-67
2022/01/17 11:53:02;;;;;;;64.63;7.63;;;;;;;;;;5107565;28;20216;-67
2022/01/17 11:55:46;;;;;;;64.18;7.05;;;;;;;;;;5112652;28;20519;-67
2022/01/17 11:58:21;;;;;;;65.82;7.88;;;;;;;;;;5112004;28;20219;-67
2022/01/17 12:00:49;;;;;;;64.45;7.22;;;;;;;;;;5112175;28;20207;-67
2022/01/17 12:03:20;;;;;;;62.90;6.90;;;;;;;;;;5111929;28;20546;-67
2022/01/17 12:05:47;;;;;;;66.75;7.50;;;;;;;;;;5110539;28;20235;-68
2022/01/17 12:08:19;;;;;;;63.50;6.78;;;;;;;;;;5111932;28;20214;-67
2022/01/17 12:10:50;;;;;;;65.40;7.20;;;;;;;;;;5111914;28;20214;-67
2022/01/17 12:13:39;;;;;;;63.58;6.95;;;;;;;;;;5112079;28;20224;-67
2022/01/17 12:16:27;;;;;;;62.55;7.32;;;;;;;;;;5112091;28;20200;-67
2022/01/17 12:19:05;;;;;;;63.67;7.30;;;;;;;;;;5111394;28;20580;-67
2022/01/17 12:21:33;;;;;;;63.67;7.45;;;;;;;;;;5111659;28;20315;-67
2022/01/17 12:24:18;;;;;;;65.13;7.15;;;;;;;;;;5111932;28;20204;-67
2022/01/17 12:27:02;;;;;;;62.72;6.25;;;;;;;;;;5111899;28;20204;-67
2022/01/17 12:29:36;;;;;;;64.07;6.65;;;;;;;;;;5111545;28;20208;-67
2022/01/17 12:32:03;;;;;;;64.05;7.50;;;;;;;;;;5111764;28;20219;-67
2022/01/17 12:34:30;;;;;;;67.32;8.40;;;;;;;;;;5111760;28;20297;-67
2022/01/17 12:36:58;;;;;;;65.63;7.45;;;;;;;;;;5098752;28;20588;-67
2022/01/17 12:39:26;;;;;;;66.88;7.38;;;;;;;;;;5091203;28;20592;-67
2022/01/17 12:41:59;;;;;;;63.72;7.35;;;;;;;;;;5090944;28;20697;-67
2022/01/17 12:44:28;;;;;;;64.35;7.10;;;;;;;;;;5092398;28;20225;-67
2022/01/17 12:46:56;;;;;;;63.58;7.68;;;;;;;;;;5095179;28;20299;-68
2022/01/17 12:49:24;;;;;;;61.20;6.70;;;;;;;;;;5095006;28;20293;-67
2022/01/17 12:51:53;;;;;;;64.95;6.70;;;;;;;;;;5094871;28;20229;-67
2022/01/17 12:54:21;;;;;;;63.95;6.47;;;;;;;;;;5094798;28;20295;-68
2022/01/17 12:56:49;;;;;;;63.85;7.47;;;;;;;;;;5095078;28;20207;-68
2022/01/17 12:59:18;;;;;;;64.70;6.68;;;;;;;;;;5094916;28;20293;-68
2022/01/17 13:01:46;;;;;;;63.00;6.10;;;;;;;;;;5095268;28;20236;-67
2022/01/17 13:04:14;;;;;;;67.82;8.48;;;;;;;;;;5094806;28;20209;-67
2022/01/17 13:06:41;;;;;;;65.18;7.45;;;;;;;;;;5094675;28;20228;-68
2022/01/17 13:09:12;;;;;;;64.70;7.90;;;;;;;;;;5109154;28;20219;-67
2022/01/17 13:11:40;;;;;;;65.00;7.43;;;;;;;;;;5114947;28;20226;-67
2022/01/17 13:14:07;;;;;;;67.63;7.35;;;;;;;;;;5115365;28;20212;-67
2022/01/17 13:16:36;;;;;;;63.15;6.70;;;;;;;;;;5114972;27;20205;-67
2022/01/17 13:19:04;;;;;;;63.88;6.68;;;;;;;;;;5114597;28;20299;-67
2022/01/17 13:21:31;;;;;;;64.75;7.03;;;;;;;;;;5114911;28;20267;-67
2022/01/17 13:24:02;;;;;;;63.50;6.90;;;;;;;;;;5114672;28;20295;-68
2022/01/17 13:26:30;;;;;;;66.93;6.90;;;;;;;;;;5114795;28;20207;-68
2022/01/17 13:29:00;;;;;;;64.07;6.90;;;;;;;;;;5114715;28;20615;-67
2022/01/17 13:31:28;;;;;;;62.22;6.40;;;;;;;;;;5114754;28;20588;-67
2022/01/17 13:33:58;;;;;;;62.78;6.95;;;;;;;;;;5114385;28;20615;-67
2022/01/17 13:36:26;;;;;;;64.32;7.30;;;;;;;;;;5114536;28;20668;-67
2022/01/17 13:39:05;;;;;;;62.90;7.05;;;;;;;;;;5112392;28;20280;-67
2022/01/17 13:41:32;;;;;;;67.72;6.97;;;;;;;;;;5114433;28;20310;-67
2022/01/17 13:44:00;;;;;;;65.68;7.28;;;;;;;;;;5114306;28;20273;-67
2022/01/17 13:46:27;;;;;;;62.33;6.75;;;;;;;;;;5114282;28;20580;-67
2022/01/17 13:48:54;;;;;;;65.18;7.80;;;;;;;;;;5113943;28;20210;-67
2022/01/17 13:51:25;;;;;;;63.20;6.85;;;;;;;;;;5114305;28;20283;-68
2022/01/17 13:53:54;;;;;;;64.45;7.20;;;;;;;;;;5114639;28;20206;-68
2022/01/17 13:56:21;;;;;;;65.82;7.43;;;;;;;;;;5113178;28;20208;-67
2022/01/17 13:58:53;;;;;;;64.25;6.50;;;;;;;;;;5113755;28;20200;-67
2022/01/17 14:01:21;;;;;;;64.18;6.95;;;;;;;;;;5114196;28;20208;-67
2022/01/17 14:03:48;;;;;;;62.72;6.15;;;;;;;;;;5113772;28;20817;-68
2022/01/17 14:06:16;;;;;;;62.50;5.40;;;;;;;;;;5114013;28;20200;-68
2022/01/17 14:08:45;;;;;;;63.08;6.15;;;;;;;;;;5113652;27;20212;-68
2022/01/17 14:11:15;;;;;;;63.70;6.05;;;;;;;;;;5112906;28;20607;-68
2022/01/17 14:13:45;;;;;;;62.80;6.50;;;;;;;;;;5113941;28;20200;-68
2022/01/17 14:16:16;;;;;;;63.72;6.22;;;;;;;;;;5112144;28;20212;-66
2022/01/17 14:18:45;;;;;;;60.85;4.72;;;;;;;;;;5113681;27;20208;-68
2022/01/17 14:21:21;;;;;;;62.20;5.20;;;;;;;;;;5106899;28;20300;-68
2022/01/17 14:23:50;;;;;;;62.15;5.32;;;;;;;;;;5092964;28;20228;-68
2022/01/17 14:26:27;;;;;;;62.90;5.45;;;;;;;;;;5093379;28;20216;-69
2022/01/17 14:28:54;;;;;;;61.78;5.15;;;;;;;;;;5092994;28;20632;-68
2022/01/17 14:31:21;;;;;;;63.38;5.22;;;;;;;;;;5093135;28;20213;-68
2022/01/17 14:33:51;;;;;;;62.42;5.40;;;;;;;;;;5092940;28;20209;-67
2022/01/17 14:36:19;;;;;;;62.03;5.82;;;;;;;;;;5092813;28;20220;-67
2022/01/17 14:38:47;;;;;;;60.88;5.30;;;;;;;;;;5092886;28;20205;-67
2022/01/17 14:41:20;;;;;;;61.45;4.80;;;;;;;;;;5093029;28;20208;-68
2022/01/17 14:43:49;;;;;;;60.80;5.07;;;;;;;;;;5092549;28;20229;-67
2022/01/17 14:46:16;;;;;;;68.00;4.93;;;;;;;;;;5092876;28;20212;-67